Time;durP1;ratioP1;P1;durP2;ratioP2;P2;SDS_P1;SDS_P2;PMS_P1;PMS_P2;Temp;Humidity;BMP_temperature;BMP_pressure;BME280_temperature;BME280_humidity;BME280_pressure;Samples;Min_cycle;Max_cycle;Signal;HPM_P1;HPM_P2
2022/11/01 00:02:51;;;;;;;6.35;4.55;;;;;;;20.07;58.50;96920.84;10381331;28;20081;-53
2022/11/01 00:08:10;;;;;;;6.03;4.65;;;;;;;20.07;58.41;96938.97;10380693;28;20069;-53
2022/11/01 00:13:30;;;;;;;7.32;4.80;;;;;;;20.07;58.42;96938.97;10380177;28;20057;-54
2022/11/01 00:18:49;;;;;;;5.95;4.15;;;;;;;20.06;58.48;96926.59;10380128;28;20061;-53
2022/11/01 00:24:09;;;;;;;5.90;4.45;;;;;;;20.06;58.44;96934.69;10380625;28;20405;-53
2022/11/01 00:29:29;;;;;;;5.65;4.18;;;;;;;20.05;58.65;96927.69;10379747;28;20505;-54
2022/11/01 00:34:49;;;;;;;5.20;4.38;;;;;;;20.04;58.55;96915.31;10379456;28;20502;-53
2022/11/01 00:40:08;;;;;;;4.57;4.13;;;;;;;20.03;58.57;96919.09;10379919;28;20069;-53
2022/11/01 00:45:28;;;;;;;5.32;4.20;;;;;;;20.02;58.51;96918.31;10379153;28;20502;-53
2022/11/01 00:50:47;;;;;;;5.60;4.70;;;;;;;20.01;58.58;96942.97;10378910;28;20457;-53
2022/11/01 00:56:07;;;;;;;4.97;4.47;;;;;;;20.01;58.57;96940.28;10378673;28;20062;-53
2022/11/01 01:01:26;;;;;;;4.75;4.18;;;;;;;20.01;58.67;96940.28;10379104;28;20061;-53
2022/11/01 01:06:45;;;;;;;5.10;4.20;;;;;;;19.99;58.68;96939.81;10378235;28;20062;-53
2022/11/01 01:12:04;;;;;;;5.15;3.88;;;;;;;19.98;58.86;96932.81;10382710;28;20057;-53
2022/11/01 01:17:24;;;;;;;4.80;4.30;;;;;;;19.98;58.79;96930.13;10378428;28;20058;-54
2022/11/01 01:22:44;;;;;;;5.35;4.43;;;;;;;19.97;58.82;96920.41;10391306;28;20112;-53
2022/11/01 01:28:03;;;;;;;4.35;3.95;;;;;;;19.95;58.67;96923.44;10377468;28;20501;-53
2022/11/01 01:33:23;;;;;;;4.40;4.00;;;;;;;19.95;58.64;96931.53;10390895;28;20421;-53
2022/11/01 01:38:42;;;;;;;7.05;4.40;;;;;;;19.94;58.60;96930.75;10376995;28;20512;-53
2022/11/01 01:44:40;;;;;;;4.55;4.15;;;;;;;19.93;58.59;96920.25;10390603;28;20390;-53
2022/11/01 01:50:05;;;;;;;4.03;3.67;;;;;;;19.93;58.56;96929.19;10377261;28;20060;-53
2022/11/01 01:55:32;;;;;;;4.28;3.88;;;;;;;19.91;58.67;96919.78;10376980;28;20100;-53
2022/11/01 02:00:52;;;;;;;4.72;4.13;;;;;;;19.91;58.62;96911.69;10376093;28;20111;-62
2022/11/01 02:06:17;;;;;;;4.05;3.60;;;;;;;19.91;58.67;96915.16;10361195;28;20065;-62
2022/11/01 02:11:37;;;;;;;4.30;3.92;;;;;;;19.89;58.68;96917.41;10375895;28;20090;-62
2022/11/01 02:17:06;;;;;;;4.47;4.07;;;;;;;19.89;58.73;96903.88;10375644;28;20469;-62
2022/11/01 02:22:47;;;;;;;4.47;4.07;;;;;;;19.87;58.63;96889.88;10361388;28;20061;-62
2022/11/01 02:28:55;;;;;;;3.92;3.55;;;;;;;19.87;58.77;96906.13;10357826;28;20165;-63
2022/11/01 02:34:25;;;;;;;4.05;3.67;;;;;;;19.86;58.75;96909.94;10375118;28;20061;-62
2022/11/01 02:39:49;;;;;;;4.57;3.58;;;;;;;19.85;58.85;96889.44;10374661;28;20053;-62
2022/11/01 02:45:27;;;;;;;4.00;3.60;;;;;;;19.84;58.85;96903.28;10374468;28;20092;-61
2022/11/01 02:50:55;;;;;;;4.03;3.58;;;;;;;19.83;58.75;96905.19;10375334;28;20062;-62
2022/11/01 02:56:15;;;;;;;3.90;3.47;;;;;;;19.84;58.88;96914.09;10360224;28;20065;-62
2022/11/01 03:01:35;;;;;;;3.40;3.10;;;;;;;19.82;58.82;96919.81;10359571;28;20057;-62
2022/11/01 03:06:57;;;;;;;3.60;3.30;;;;;;;19.82;58.85;96940.66;10387697;28;20053;-63
2022/11/01 03:12:24;;;;;;;3.85;3.50;;;;;;;19.80;58.93;96940.16;10359102;28;20128;-62
2022/11/01 03:17:51;;;;;;;3.42;3.13;;;;;;;19.79;58.82;96936.69;10359480;28;20108;-62
2022/11/01 03:23:11;;;;;;;3.60;3.30;;;;;;;19.79;58.91;96925.88;10387310;28;20062;-61
2022/11/01 03:28:35;;;;;;;3.75;3.25;;;;;;;19.78;58.95;96924.28;10374286;28;20054;-62
2022/11/01 03:34:01;;;;;;;3.28;2.97;;;;;;;19.77;58.92;96914.59;10359294;28;20065;-63
2022/11/01 03:39:27;;;;;;;3.53;3.03;;;;;;;19.77;58.99;96913.78;10374083;28;20459;-62
2022/11/01 03:44:51;;;;;;;4.18;3.53;;;;;;;19.77;58.88;96928.09;10359147;28;20058;-62
2022/11/01 03:50:18;;;;;;;3.42;3.13;;;;;;;19.75;58.97;96924.91;10358952;28;20057;-62
2022/11/01 03:55:37;;;;;;;3.95;3.25;;;;;;;19.74;58.98;96924.13;10373591;28;20108;-62
2022/11/01 04:00:56;;;;;;;3.30;3.00;;;;;;;19.74;58.97;96926.06;10373666;28;20108;-62
2022/11/01 04:06:16;;;;;;;3.05;2.75;;;;;;;19.74;59.02;96932.25;10373558;28;20061;-62
2022/11/01 04:11:35;;;;;;;3.45;3.00;;;;;;;19.74;59.07;96920.66;10378702;28;20100;-62
2022/11/01 04:22:33;;;;;;;3.40;2.70;;;;;;;19.71;59.01;96929.34;10373210;28;20112;-62
2022/11/01 04:27:55;;;;;;;3.28;2.80;;;;;;;19.71;58.93;96934.75;10374863;28;20296;-62
2022/11/01 04:33:14;;;;;;;3.25;2.95;;;;;;;19.70;58.99;96922.38;10380465;28;20053;-62
2022/11/01 04:38:33;;;;;;;3.00;2.70;;;;;;;19.69;58.93;96934.28;10380267;28;20064;-62
2022/11/01 04:43:55;;;;;;;3.05;2.75;;;;;;;19.69;58.88;96934.28;10380130;28;20058;-62
2022/11/01 04:49:14;;;;;;;2.88;2.58;;;;;;;19.67;58.87;96929.19;10392991;28;20046;-62
2022/11/01 04:54:34;;;;;;;2.92;2.63;;;;;;;19.68;58.86;96921.88;10379631;28;20069;-62
2022/11/01 04:59:54;;;;;;;2.85;2.65;;;;;;;19.66;58.88;96919.53;10392534;28;20054;-62
2022/11/01 05:05:14;;;;;;;2.97;2.67;;;;;;;19.67;58.96;96928.41;10379174;28;20053;-62
2022/11/01 05:10:35;;;;;;;2.67;2.47;;;;;;;19.66;59.00;96943.84;10387324;28;20046;-62
2022/11/01 05:15:55;;;;;;;2.90;2.60;;;;;;;19.65;59.05;96946.88;10378685;28;20049;-62
2022/11/01 05:21:14;;;;;;;3.05;2.60;;;;;;;19.64;59.28;96946.06;10378628;28;20061;-63
2022/11/01 05:26:34;;;;;;;2.50;2.30;;;;;;;19.64;59.12;96939.84;10391691;28;20054;-62
2022/11/01 05:31:53;;;;;;;2.88;2.53;;;;;;;19.64;59.11;96932.56;10377567;28;20528;-63
2022/11/01 05:37:14;;;;;;;3.83;2.70;;;;;;;19.66;59.26;96943.03;10376028;28;20065;-63
2022/11/01 05:42:37;;;;;;;2.88;2.33;;;;;;;19.66;59.40;96965.47;10390945;28;20065;-63
2022/11/01 05:48:01;;;;;;;3.97;2.42;;;;;;;19.66;59.32;96953.84;10377328;28;20057;-62
2022/11/01 05:53:20;;;;;;;2.65;2.28;;;;;;;19.68;59.38;96957.00;10377339;28;20065;-63
2022/11/01 05:58:40;;;;;;;2.85;2.38;;;;;;;19.68;59.39;96960.53;10377089;28;20124;-62
2022/11/01 06:04:00;;;;;;;3.38;2.28;;;;;;;19.68;59.43;96951.63;10376399;28;20054;-63
2022/11/01 06:09:20;;;;;;;5.35;2.60;;;;;;;19.70;59.26;96965.63;10376422;28;20065;-63
2022/11/01 06:14:39;;;;;;;6.82;3.40;;;;;;;19.70;59.35;96976.44;10376376;28;20056;-63
2022/11/01 06:19:58;;;;;;;9.23;3.90;;;;;;;19.70;59.20;96979.94;10389383;28;20050;-63
2022/11/01 06:25:18;;;;;;;9.07;4.15;;;;;;;19.72;59.31;96985.06;10376243;28;20060;-63
2022/11/01 06:30:37;;;;;;;11.02;4.00;;;;;;;19.72;59.46;96979.66;10388865;28;20092;-64
2022/11/01 06:35:57;;;;;;;9.38;4.30;;;;;;;19.72;59.46;96966.91;10375741;28;20050;-64
2022/11/01 06:41:16;;;;;;;7.43;4.40;;;;;;;19.74;59.38;96982.81;10375078;28;20560;-64
2022/11/01 06:46:36;;;;;;;9.85;3.88;;;;;;;19.75;59.37;96987.88;10388466;28;20456;-63
2022/11/01 06:51:55;;;;;;;9.50;4.07;;;;;;;19.76;59.31;96986.00;10360016;28;20050;-63
2022/11/01 06:57:14;;;;;;;10.13;4.50;;;;;;;19.78;59.27;97007.28;10374864;28;20062;-63
2022/11/01 07:02:34;;;;;;;10.52;4.60;;;;;;;19.78;59.33;97021.59;10374884;28;20072;-63
2022/11/01 07:07:54;;;;;;;9.60;4.45;;;;;;;19.81;59.28;97044.50;10374747;28;20057;-63
2022/11/01 07:13:13;;;;;;;10.27;4.05;;;;;;;19.83;59.30;97053.09;10373967;28;20054;-64
2022/11/01 07:18:33;;;;;;;8.55;4.18;;;;;;;19.83;59.32;97051.16;10374370;28;20149;-63
2022/11/01 07:23:53;;;;;;;10.45;3.97;;;;;;;19.83;59.34;97059.28;10387418;28;20068;-63
2022/11/01 07:29:12;;;;;;;7.25;4.05;;;;;;;19.86;59.23;97038.94;10374283;28;20066;-64
2022/11/01 07:34:32;;;;;;;8.80;3.83;;;;;;;19.87;59.26;97040.50;10387049;28;20170;-64
2022/11/01 07:39:52;;;;;;;7.85;3.50;;;;;;;19.88;59.26;97048.31;10386939;28;20053;-63
2022/11/01 07:45:12;;;;;;;9.68;4.43;;;;;;;19.89;59.28;97063.41;10386855;28;20065;-63
2022/11/01 07:50:33;;;;;;;7.32;3.80;;;;;;;19.91;59.20;97065.78;10373123;28;20058;-63
2022/11/01 07:55:52;;;;;;;7.32;3.58;;;;;;;19.92;59.39;97076.28;10373710;28;20053;-63
2022/11/01 08:01:11;;;;;;;9.80;3.92;;;;;;;19.93;59.25;97072.50;10373674;28;20058;-63
2022/11/01 08:06:31;;;;;;;8.60;3.97;;;;;;;19.94;59.17;97071.34;10381232;28;20080;-63
2022/11/01 08:11:50;;;;;;;6.38;3.40;;;;;;;19.96;59.17;97073.75;10382885;28;20057;-63
2022/11/01 08:17:09;;;;;;;8.85;3.75;;;;;;;19.97;59.14;97080.72;10394225;28;20053;-63
2022/11/01 08:22:29;;;;;;;8.50;3.97;;;;;;;19.98;59.18;97073.44;10394108;28;20127;-63
2022/11/01 08:27:48;;;;;;;10.50;4.15;;;;;;;20.00;59.20;97087.44;10380650;28;20069;-64
2022/11/01 08:33:08;;;;;;;8.73;3.97;;;;;;;20.01;59.09;97089.00;10380325;28;20112;-64
2022/11/01 08:38:27;;;;;;;7.00;4.05;;;;;;;20.02;59.02;97096.03;10380476;28;20505;-64
2022/11/01 08:43:47;;;;;;;7.22;3.30;;;;;;;20.03;59.02;97114.63;10380022;28;20053;-63
2022/11/01 08:49:07;;;;;;;6.45;3.53;;;;;;;20.05;58.93;97122.41;10392899;28;20405;-63
2022/11/01 08:54:26;;;;;;;8.40;3.53;;;;;;;20.06;58.93;97115.91;10379496;28;20054;-64
2022/11/01 08:59:45;;;;;;;7.07;4.00;;;;;;;20.08;59.12;97110.97;10392578;28;20049;-63
2022/11/01 09:05:06;;;;;;;7.15;3.88;;;;;;;20.08;58.99;97119.88;10379418;28;20050;-64
2022/11/01 09:10:26;;;;;;;6.40;3.72;;;;;;;20.09;59.01;97129.59;10387566;28;20054;-63
2022/11/01 09:15:45;;;;;;;6.38;3.75;;;;;;;20.11;59.04;97127.34;10391414;28;20413;-63
2022/11/01 09:21:06;;;;;;;5.70;3.42;;;;;;;20.13;59.31;97118.91;10378697;28;20058;-63
2022/11/01 09:26:26;;;;;;;6.18;3.78;;;;;;;20.14;59.33;97110.47;10378548;28;20057;-63
2022/11/01 09:31:45;;;;;;;5.72;3.15;;;;;;;20.15;59.38;97114.78;10391424;28;20080;-63
2022/11/01 09:37:05;;;;;;;5.25;3.20;;;;;;;20.17;59.44;97127.16;10378235;28;20068;-63
2022/11/01 09:42:34;;;;;;;5.72;3.35;;;;;;;20.19;59.34;97120.34;10377863;28;20061;-63
2022/11/01 09:47:55;;;;;;;6.30;3.33;;;;;;;20.20;59.32;97135.44;10376079;28;20050;-63
2022/11/01 09:53:20;;;;;;;5.50;3.35;;;;;;;20.21;59.26;97126.22;10376475;28;20050;-63
2022/11/01 09:59:01;;;;;;;5.20;3.10;;;;;;;20.22;58.94;97149.44;10377397;28;20068;-62
2022/11/01 10:04:40;;;;;;;6.53;3.65;;;;;;;20.24;58.95;97144.50;10375482;28;20556;-63
2022/11/01 10:10:38;;;;;;;7.32;3.13;;;;;;;20.26;58.90;97133.38;10386696;28;20414;-63
2022/11/01 10:16:07;;;;;;;;;;;;;;;20.26;58.85;97134.16;10377187;28;20076;-63
2022/11/01 10:21:41;;;;;;;4.15;2.75;;;;;;;20.26;58.72;97142.28;10376520;28;19922;-63
2022/11/01 10:27:21;;;;;;;5.07;3.03;;;;;;;20.28;58.90;97150.88;10361118;28;20081;-64
2022/11/01 10:33:00;;;;;;;5.25;2.97;;;;;;;20.29;58.79;97135.44;10352973;28;20100;-64
2022/11/01 10:38:38;;;;;;;6.45;3.08;;;;;;;20.32;58.73;97137.50;10374421;28;20049;-63
2022/11/01 10:44:02;;;;;;;5.63;2.70;;;;;;;20.32;58.87;97141.00;10387636;28;20113;-62
2022/11/01 10:49:27;;;;;;;5.40;3.05;;;;;;;20.35;58.29;97137.66;10374525;28;20455;-62
2022/11/01 10:54:49;;;;;;;4.45;3.10;;;;;;;20.38;57.80;97133.50;10375324;28;20452;-61
2022/11/01 11:00:17;;;;;;;5.93;3.10;;;;;;;20.42;57.67;97131.75;10375129;28;20064;-62
2022/11/01 11:05:36;;;;;;;5.05;3.30;;;;;;;20.44;57.19;97134.13;10374851;28;20058;-61
2022/11/01 11:11:02;;;;;;;4.03;3.03;;;;;;;20.44;57.23;97132.22;10374409;28;20066;-62
2022/11/01 11:16:32;;;;;;;3.90;2.88;;;;;;;20.47;56.43;97125.38;10374542;28;20054;-61
2022/11/01 11:21:52;;;;;;;4.10;3.03;;;;;;;20.49;56.61;97133.97;10372740;28;20046;-61
2022/11/01 11:27:27;;;;;;;5.03;3.20;;;;;;;20.50;56.29;97132.84;10374494;28;20061;-61
2022/11/01 11:32:47;;;;;;;4.63;2.90;;;;;;;20.51;56.26;97127.13;10374069;28;20053;-62
2022/11/01 11:38:13;;;;;;;4.72;3.53;;;;;;;20.52;56.26;97134.13;10373974;28;20054;-62
2022/11/01 11:43:35;;;;;;;4.78;3.20;;;;;;;20.52;55.74;97141.44;10358495;28;20505;-62
2022/11/01 11:48:59;;;;;;;4.80;3.30;;;;;;;20.53;55.67;97134.91;10373776;28;20061;-62
2022/11/01 11:54:27;;;;;;;4.13;3.30;;;;;;;20.55;55.53;97129.97;10373462;28;20050;-61
2022/11/01 12:00:19;;;;;;;4.97;3.80;;;;;;;20.55;55.55;97130.75;10373737;28;20120;-61
2022/11/01 12:05:51;;;;;;;5.18;3.40;;;;;;;20.59;55.43;97135.53;10358481;28;20109;-61
2022/11/01 12:11:11;;;;;;;3.88;3.20;;;;;;;20.57;55.46;97125.03;10373045;28;20057;-61
2022/11/01 12:16:40;;;;;;;4.22;3.47;;;;;;;20.58;55.31;97126.63;10372682;28;20058;-62
2022/11/01 12:22:01;;;;;;;4.75;3.50;;;;;;;20.60;55.24;97131.72;10385929;28;20045;-61
2022/11/01 12:27:23;;;;;;;4.63;3.60;;;;;;;20.61;55.16;97127.94;10371809;28;20112;-62
2022/11/01 12:32:51;;;;;;;4.53;3.78;;;;;;;20.61;55.06;97139.53;10358308;28;20132;-61
2022/11/01 12:38:32;;;;;;;5.07;3.03;;;;;;;20.62;54.86;97138.44;10372410;28;20069;-62
2022/11/01 12:43:56;;;;;;;4.70;3.47;;;;;;;20.63;54.91;97139.22;10373560;28;20053;-62
2022/11/01 12:49:23;;;;;;;3.83;3.42;;;;;;;20.63;54.64;97140.00;10374780;28;20112;-61
2022/11/01 12:54:47;;;;;;;4.80;3.60;;;;;;;20.64;54.71;97128.06;10379665;28;20062;-61
2022/11/01 13:00:14;;;;;;;5.18;3.50;;;;;;;20.65;54.79;97134.28;10379034;28;20058;-62
2022/11/01 13:05:56;;;;;;;4.00;3.60;;;;;;;20.65;54.65;97132.34;10378428;28;20054;-61
2022/11/01 13:11:27;;;;;;;4.68;3.35;;;;;;;20.65;54.48;97135.06;10378029;28;20062;-62
2022/11/01 13:16:52;;;;;;;4.13;3.53;;;;;;;20.63;54.48;97137.31;10379055;28;20058;-61
2022/11/01 13:22:29;;;;;;;4.35;3.35;;;;;;;20.62;54.47;97145.75;10378779;28;20054;-61
2022/11/01 13:28:15;;;;;;;4.75;3.60;;;;;;;20.61;54.39;97153.06;10378400;28;20058;-62
2022/11/01 13:34:22;;;;;;;5.65;3.70;;;;;;;20.62;54.39;97151.97;10378172;28;20065;-62
2022/11/01 13:40:04;;;;;;;4.75;3.88;;;;;;;20.62;54.37;97157.38;10363139;28;20058;-61
2022/11/01 13:45:33;;;;;;;4.75;3.88;;;;;;;20.63;54.35;97155.47;10377780;28;20058;-62
2022/11/01 13:51:30;;;;;;;4.40;3.55;;;;;;;20.62;54.27;97148.44;10377560;28;20069;-62
2022/11/01 13:56:59;;;;;;;4.15;3.45;;;;;;;20.63;54.49;97145.41;10377236;28;20111;-62
2022/11/01 14:02:21;;;;;;;3.88;3.42;;;;;;;20.65;54.50;97139.69;10375960;28;20124;-61
2022/11/01 14:07:43;;;;;;;4.13;3.70;;;;;;;20.66;54.37;97157.50;10376715;28;20054;-62
2022/11/01 14:13:06;;;;;;;4.57;3.83;;;;;;;20.66;54.23;97161.03;10375747;28;20108;-61
2022/11/01 14:18:26;;;;;;;3.88;3.42;;;;;;;20.66;54.19;97168.34;10376622;28;20062;-61
2022/11/01 14:23:47;;;;;;;3.80;3.42;;;;;;;20.66;54.23;97171.88;10376086;28;20414;-62
2022/11/01 14:29:09;;;;;;;5.05;3.85;;;;;;;20.67;54.17;97164.53;10388853;28;20058;-61
2022/11/01 14:34:31;;;;;;;4.97;3.65;;;;;;;20.68;54.22;97174.22;10374548;28;20057;-62
2022/11/01 14:40:02;;;;;;;6.00;3.67;;;;;;;20.67;54.04;97159.91;10360712;28;20053;-61
2022/11/01 14:45:38;;;;;;;4.00;3.60;;;;;;;20.69;53.92;97175.81;10360781;28;20053;-61
2022/11/01 14:51:06;;;;;;;6.30;3.95;;;;;;;20.70;53.95;97180.13;10387155;28;20045;-62
2022/11/01 14:56:34;;;;;;;4.63;3.87;;;;;;;20.71;53.87;97193.34;10374891;28;20054;-61
2022/11/01 15:01:57;;;;;;;4.47;3.67;;;;;;;20.72;53.84;97192.22;10374921;28;20064;-61
2022/11/01 15:07:23;;;;;;;4.40;3.72;;;;;;;20.73;53.75;97199.22;10372677;28;20548;-62
2022/11/01 15:12:45;;;;;;;3.95;3.60;;;;;;;20.74;53.74;97181.09;10373436;28;20062;-62
2022/11/01 15:18:11;;;;;;;4.13;3.72;;;;;;;20.76;53.59;97183.44;10373512;28;20061;-61
2022/11/01 15:23:35;;;;;;;4.40;4.00;;;;;;;20.78;53.66;97175.78;10373088;28;20065;-61
2022/11/01 15:28:58;;;;;;;4.22;3.80;;;;;;;20.76;53.58;97180.72;10372221;28;20418;-62
2022/11/01 15:34:26;;;;;;;4.70;3.95;;;;;;;20.79;53.45;97180.09;10373815;28;20072;-61
2022/11/01 15:39:45;;;;;;;4.83;4.20;;;;;;;20.77;53.30;97188.53;10373736;28;20058;-62
2022/11/01 15:45:27;;;;;;;5.03;3.85;;;;;;;20.76;53.56;97195.09;10373646;28;20135;-63
2022/11/01 15:51:16;;;;;;;4.65;3.85;;;;;;;20.74;53.68;97200.03;10372967;28;20513;-64
2022/11/01 15:56:41;;;;;;;3.95;3.53;;;;;;;20.72;53.84;97188.72;10373227;28;20054;-64
2022/11/01 16:02:02;;;;;;;4.65;3.65;;;;;;;20.71;53.94;97187.91;10386236;28;20490;-63
2022/11/01 16:07:23;;;;;;;4.10;3.70;;;;;;;20.71;54.02;97209.56;10372606;28;20517;-63
2022/11/01 16:12:43;;;;;;;4.57;3.85;;;;;;;20.71;54.15;97215.00;10372524;28;20467;-63
2022/11/01 16:18:14;;;;;;;3.95;3.58;;;;;;;20.70;54.21;97218.84;10373025;28;20069;-64
2022/11/01 16:23:34;;;;;;;4.32;3.50;;;;;;;20.70;54.22;97223.47;10374220;28;20054;-64
2022/11/01 16:28:53;;;;;;;4.57;4.10;;;;;;;20.71;54.29;97235.84;10380066;28;20540;-63
2022/11/01 16:34:23;;;;;;;4.72;3.72;;;;;;;20.71;54.37;97228.53;10379756;28;20062;-63
2022/11/01 16:39:43;;;;;;;5.05;4.25;;;;;;;20.72;54.43;97230.13;10379479;28;20108;-60
2022/11/01 16:45:04;;;;;;;7.28;4.15;;;;;;;20.73;54.87;97229.00;10378495;28;20054;-61
2022/11/01 16:50:23;;;;;;;4.50;4.10;;;;;;;20.74;55.33;97227.09;10378988;28;20396;-59
2022/11/01 16:55:42;;;;;;;9.85;3.70;;;;;;;20.74;55.55;97227.91;10390991;28;20050;-63
2022/11/01 17:01:02;;;;;;;4.43;3.70;;;;;;;20.74;55.76;97240.66;10377511;28;20525;-61
2022/11/01 17:06:23;;;;;;;4.07;3.45;;;;;;;20.76;55.92;97248.44;10376885;28;20057;-56
2022/11/01 17:11:44;;;;;;;4.05;3.63;;;;;;;20.77;55.99;97252.75;10377155;28;20058;-57
2022/11/01 17:17:12;;;;;;;7.65;3.88;;;;;;;20.78;56.18;97265.97;10390293;28;20046;-57
2022/11/01 17:22:35;;;;;;;7.07;3.53;;;;;;;20.80;56.33;97269.16;10375525;28;20063;-57
2022/11/01 17:27:55;;;;;;;6.18;3.70;;;;;;;20.81;56.33;97267.22;10362152;28;20054;-57
2022/11/01 17:33:14;;;;;;;4.55;3.53;;;;;;;20.81;56.54;97264.50;10376070;28;20061;-58
2022/11/01 17:38:33;;;;;;;6.32;3.55;;;;;;;20.82;56.66;97258.00;10360123;28;20062;-58
2022/11/01 17:43:53;;;;;;;5.03;3.53;;;;;;;20.82;56.49;97264.19;10375451;28;20054;-57
2022/11/01 17:49:20;;;;;;;4.60;3.60;;;;;;;20.81;56.58;97259.88;10374806;28;20053;-58
2022/11/01 17:54:39;;;;;;;4.47;2.97;;;;;;;20.82;56.71;97263.41;10375734;28;20073;-60
2022/11/01 17:59:59;;;;;;;4.03;3.47;;;;;;;20.82;56.68;97274.25;10348662;28;20505;-60
2022/11/01 18:05:19;;;;;;;5.05;3.38;;;;;;;20.81;56.44;97264.50;10365253;28;20050;-59
2022/11/01 18:10:51;;;;;;;5.82;3.50;;;;;;;20.81;56.46;97267.22;10375148;28;20062;-60
2022/11/01 18:16:33;;;;;;;4.43;3.35;;;;;;;20.80;56.61;97258.31;10363306;28;20049;-60
2022/11/01 18:22:19;;;;;;;3.95;3.30;;;;;;;20.81;56.52;97256.41;10374627;28;20740;-60
2022/11/01 18:27:39;;;;;;;5.15;3.42;;;;;;;20.79;56.68;97258.63;10373002;28;20050;-58
2022/11/01 18:33:03;;;;;;;3.50;3.17;;;;;;;20.79;56.67;97255.91;10382287;28;20053;-58
2022/11/01 18:38:42;;;;;;;3.63;3.30;;;;;;;20.78;56.71;97260.53;10359733;28;20065;-59
2022/11/01 18:44:08;;;;;;;4.88;2.97;;;;;;;20.78;56.77;97259.72;10373620;28;20077;-60
2022/11/01 18:49:29;;;;;;;3.40;3.05;;;;;;;20.78;56.79;97265.16;10359165;28;20066;-59
2022/11/01 18:54:51;;;;;;;4.95;3.13;;;;;;;20.78;56.89;97273.25;10372668;28;20057;-59
2022/11/01 19:00:12;;;;;;;4.80;3.38;;;;;;;20.78;56.83;97278.69;10386594;28;20460;-58
2022/11/01 19:05:33;;;;;;;5.05;3.30;;;;;;;20.78;56.89;97278.69;10368036;28;20111;-58
2022/11/01 19:10:53;;;;;;;3.67;3.08;;;;;;;20.77;56.91;97274.41;10357809;28;20058;-59
2022/11/01 19:16:12;;;;;;;5.47;3.50;;;;;;;20.77;56.87;97279.81;10387297;28;20108;-59
2022/11/01 19:21:34;;;;;;;5.90;3.63;;;;;;;20.76;57.25;97281.72;10372924;28;20084;-58
2022/11/01 19:26:55;;;;;;;8.10;4.63;;;;;;;20.77;57.58;97277.91;10374249;28;20062;-60
2022/11/01 19:32:15;;;;;;;18.20;9.10;;;;;;;20.77;58.01;97274.41;10373411;28;20525;-60
2022/11/01 19:37:37;;;;;;;9.60;5.53;;;;;;;20.77;58.39;97271.69;10345538;28;20418;-59
2022/11/01 19:42:59;;;;;;;13.85;7.50;;;;;;;20.78;58.77;97273.25;10333189;28;20059;-60
2022/11/01 19:48:24;;;;;;;26.98;11.90;;;;;;;20.77;59.07;97269.78;10331425;28;20046;-60
2022/11/01 19:53:45;;;;;;;36.63;14.82;;;;;;;20.78;59.72;97267.84;10318295;28;20070;-61
2022/11/01 19:59:10;;;;;;;25.13;10.38;;;;;;;20.79;60.04;97272.16;10336336;28;20070;-61
2022/11/01 20:04:31;;;;;;;22.02;9.40;;;;;;;20.77;59.86;97277.09;10335211;28;20105;-61
2022/11/01 20:09:51;;;;;;;21.92;8.38;;;;;;;20.77;59.82;97283.31;10338656;28;20565;-58
2022/11/01 20:15:10;;;;;;;22.83;8.90;;;;;;;20.74;59.79;97284.75;10352001;28;20055;-59
2022/11/01 20:20:31;;;;;;;17.90;8.38;;;;;;;20.74;59.81;97290.16;10339112;28;20061;-63
2022/11/01 20:25:50;;;;;;;16.38;7.22;;;;;;;20.74;59.94;97302.91;10338114;28;20581;-62
2022/11/01 20:31:10;;;;;;;15.30;6.63;;;;;;;20.71;58.61;97300.84;10338991;28;20502;-61
2022/11/01 20:36:30;;;;;;;16.42;7.28;;;;;;;20.70;58.88;97308.16;10338217;28;20060;-60
2022/11/01 20:41:51;;;;;;;17.63;6.85;;;;;;;20.71;59.09;97311.66;10339200;28;20064;-58
2022/11/01 20:47:12;;;;;;;13.90;6.50;;;;;;;20.72;59.00;97324.09;10352235;28;20054;-62
2022/11/01 20:52:31;;;;;;;15.05;6.40;;;;;;;20.69;59.06;97325.50;10337631;28;20061;-58
2022/11/01 20:57:52;;;;;;;12.05;6.38;;;;;;;20.70;59.01;97329.03;10338424;28;20400;-58
2022/11/01 21:03:14;;;;;;;12.88;6.20;;;;;;;20.68;59.04;97332.06;10337938;28;20050;-60
2022/11/01 21:08:35;;;;;;;12.10;5.38;;;;;;;20.69;59.30;97332.84;10364741;28;20073;-63
2022/11/01 21:13:58;;;;;;;12.60;6.03;;;;;;;20.69;59.18;97330.16;10378684;28;20065;-63
2022/11/01 21:19:24;;;;;;;9.30;5.75;;;;;;;20.68;58.99;97339.38;10376997;28;20054;-61
2022/11/01 21:24:45;;;;;;;11.15;5.70;;;;;;;20.66;59.14;97331.59;10377737;28;20068;-61
2022/11/01 21:30:34;;;;;;;15.05;6.10;;;;;;;20.66;59.06;97333.47;10378051;28;20073;-62
2022/11/01 21:35:54;;;;;;;11.75;5.50;;;;;;;20.64;59.10;97339.22;10373167;28;20050;-63
2022/11/01 21:41:41;;;;;;;9.52;5.28;;;;;;;20.63;59.08;97345.75;10376561;28;20061;-61
2022/11/01 21:47:13;;;;;;;10.50;4.93;;;;;;;20.63;59.18;97340.34;10377071;28;20417;-62
2022/11/01 21:52:33;;;;;;;10.70;5.55;;;;;;;20.62;59.23;97336.03;10375687;28;20061;-64
2022/11/01 21:57:52;;;;;;;10.40;5.15;;;;;;;20.62;59.15;97329.81;10295602;28;20059;-64
2022/11/01 22:03:11;;;;;;;10.02;6.00;;;;;;;20.59;59.21;97331.25;10308879;28;20059;-64
2022/11/01 22:08:31;;;;;;;8.35;4.80;;;;;;;20.60;59.18;97329.34;10362284;28;20112;-63
2022/11/01 22:13:53;;;;;;;9.27;4.68;;;;;;;20.59;59.23;97325.03;10361004;28;20061;-63
2022/11/01 22:19:13;;;;;;;10.07;4.95;;;;;;;20.59;59.16;97331.25;10355921;28;20069;-64
2022/11/01 22:24:32;;;;;;;7.50;4.47;;;;;;;20.58;59.09;97328.81;10336349;28;20054;-64
2022/11/01 22:29:53;;;;;;;8.45;4.47;;;;;;;20.57;59.22;97328.03;10346537;28;20528;-63
2022/11/01 22:35:12;;;;;;;8.25;4.30;;;;;;;20.56;59.05;97326.44;10346505;28;20054;-63
2022/11/01 22:40:31;;;;;;;8.30;4.43;;;;;;;20.55;59.23;97322.94;10333664;28;20113;-64
2022/11/01 22:45:59;;;;;;;9.23;4.43;;;;;;;20.53;59.33;97314.34;10619811;27;20502;-63
2022/11/01 22:51:23;;;;;;;8.95;4.70;;;;;;;20.53;59.29;97333.28;10578237;28;20402;-62
2022/11/01 22:56:43;;;;;;;6.90;3.90;;;;;;;20.53;59.40;97333.28;10589212;28;20055;-62
2022/11/01 23:02:23;;;;;;;7.57;3.92;;;;;;;20.52;59.38;97336.31;10614745;27;20421;-62
2022/11/01 23:08:29;;;;;;;8.45;4.50;;;;;;;20.50;59.57;97331.22;10603168;28;20062;-63
2022/11/01 23:19:26;;;;;;;6.60;3.97;;;;;;;20.50;59.64;97338.53;10612883;28;20502;-63
2022/11/01 23:24:50;;;;;;;7.03;4.70;;;;;;;20.48;59.69;97336.16;10585429;28;20112;-63
2022/11/01 23:30:10;;;;;;;7.18;4.13;;;;;;;20.48;59.74;97329.94;10602566;28;20051;-63
2022/11/01 23:35:30;;;;;;;6.78;4.18;;;;;;;20.47;59.72;97323.72;10582134;28;20044;-63
2022/11/01 23:40:51;;;;;;;7.65;4.25;;;;;;;20.47;59.68;97322.94;10610011;28;20051;-63
2022/11/01 23:46:11;;;;;;;6.22;4.00;;;;;;;20.45;59.84;97319.75;10605335;27;20467;-62
2022/11/01 23:51:32;;;;;;;5.70;4.00;;;;;;;20.43;59.83;97314.66;10626451;27;20051;-63
2022/11/01 23:56:52;;;;;;;5.47;4.18;;;;;;;20.43;59.87;97317.38;10586930;27;20055;-63
